• Join FlightAware (Why Join?)
  • Login
  • US Flag 
05:18PM EDT


 

Airport Tracker/Info


-or-


 

Live Flight TrackerFlight Track Log ✈ UAL33 ✈ 03-Jul-2013 ✈ KIAH - KORD

Flight Track Log - Related Links

Times and Time Zones

All times are in EDT time to prevent confusion due to time zone crossing. See the UAL33 flight status page for this flight to view local times or setup timezone preferences in your user account.

Time Position Orientation Groundspeed Altitude Reporting Facility
EDT Latitude Longitude Course Direction KTS MPH feet Rate Location/Type
06:45PM 29.9822 -95.2954 49° Northeast 162 186 1,100  Level FlightAware ADS-B
06:45PM 29.9843 -95.2932 42° Northeast 165 190 1,200 1,680 Climbing FlightAware ADS-B
06:45PM 29.9863 -95.2918 31° Northeast 168 193 1,300 3,000 Climbing FlightAware ADS-B
06:45PM 29.9886 -95.2906 24° Northeast 170 196 1,500 2,520 Climbing FlightAware ADS-B
06:45PM 29.9922 -95.2895 15° North 178 205 1,600 1,500 Climbing FlightAware ADS-B
06:45PM 29.9951 -95.2892 North 183 211 1,700 840 Climbing FlightAware ADS-B
06:45PM 29.9983 -95.2894 357° North 192 221 1,700 840 Level FlightAware ADS-B
06:45PM 30.0018 -95.2900 352° North 202 232 1,800 1,500 Climbing FlightAware ADS-B
06:45PM 30.0057 -95.2911 346° North 212 244 1,900 1,500 Climbing FlightAware ADS-B
06:45PM 30.0220 -95.2976 341° North 241 277 2,300 2,040 Climbing FlightAware ADS-B
06:46PM 30.0353 -95.3032 340° North 249 287 2,900 2,520 Climbing FlightAware ADS-B
06:46PM 30.0525 -95.3100 341° North 263 303 3,500 660 Climbing FlightAware ADS-B
06:47PM 30.1526 -95.3456 342° North 274 315 4,000 300 Climbing FlightAware ADS-B
06:47PM 30.1576 -95.3478 339° North 275 316 4,000  Level FlightAware ADS-B
06:47PM 30.1647 -95.3522 329° Northwest 274 315 4,000 1,080 Level FlightAware ADS-B
06:48PM 30.1818 -95.3652 327° Northwest 276 318 4,400 2,760 Climbing FlightAware ADS-B
06:48PM 30.2143 -95.3916 325° Northwest 278 320 6,200 3,120 Climbing FlightAware ADS-B
06:50PM 30.3230 -95.4801 325° Northwest 334 384 11,200 2,580 Climbing FlightAware ADS-B
06:52PM 30.5333 -95.6479 328° Northwest 439 505 16,400 2,340 Climbing FlightAware ADS-B
06:53PM 30.6220 -95.6983 335° Northwest 456 525 18,500 2,520 Climbing FlightAware ADS-B
06:54PM 30.7411 -95.7620 335° Northwest 472 543 21,000 2,400 Climbing FlightAware ADS-B
06:55PM 30.8575 -95.8191 339° North 485 558 23,300 2,160 Climbing FlightAware ADS-B
06:56PM 30.9684 -95.8406 353° North 504 580 24,900 1,920 Climbing FlightAware ADS-B
06:56PM 31.0445 -95.8522 353° North 512 589 25,900 1,800 Climbing FlightAware ADS-B
06:57PM 31.1155 -95.8627 353° North 517 595 26,800 1,800 Climbing FlightAware ADS-B
06:58PM 31.2726 -95.8861 353° North 520 598 28,800 1,860 Climbing FlightAware ADS-B
06:58PM 31.3460 -95.8971 353° North 517 595 29,900 2,160 Climbing FlightAware ADS-B
07:00PM 31.5965 -95.9350 353° North 497 572 33,800 2,040 Climbing FlightAware ADS-B
07:01PM 31.6752 -95.9469 353° North 495 570 34,800 1,260 Climbing FlightAware ADS-B
07:02PM 31.9008 -95.9809 353° North 501 577 36,700 540 Climbing FlightAware ADS-B
07:05PM 32.2322 -96.0314 353° North 508 585 37,000 300 Climbing FlightAware ADS-B
07:07PM 32.5820 -96.0850 353° North 502 578 38,400 480 Climbing FlightAware
07:09PM 32.7630 -96.1130 353° North 510 587 39,000 300 Climbing FlightAware
07:09PM 32.8600 -96.1280 353° North 512 589 39,000  Level FlightAware
07:10PM 32.9510 -96.1420 353° North 512 589 39,000  Level FlightAware
07:11PM 33.0450 -96.1570 352° North 511 588 39,000  Level FlightAware
07:11PM 33.1510 -96.1730 353° North 509 586 39,000  Level FlightAware
07:12PM 33.2600 -96.1910 352° North 508 585 39,000  Level FlightAware
07:13PM 33.3390 -96.2030 353° North 509 586 39,000  Level FlightAware
07:13PM 33.4280 -96.2170 353° North 508 585 39,000  Level FlightAware
07:14PM 33.5160 -96.2270 355° North 511 588 39,000  Level FlightAware
07:15PM 33.6010 -96.2130 North 517 595 39,000  Level FlightAware
07:15PM 33.6710 -96.1880 17° North 516 594 39,000  Level FlightAware
07:16PM 33.7730 -96.1540 15° North 516 594 39,000  Level FlightAware
07:16PM 33.8640 -96.1230 16° North 516 594 39,000  Level FlightAware
07:17PM 33.9660 -96.0880 16° North 514 592 39,000  Level FlightAware
07:18PM 34.0610 -96.0560 16° North 514 592 39,000  Level FlightAware
07:19PM 34.1620 -96.0210 16° North 514 592 39,000  Level FlightAware
07:19PM 34.2550 -95.9890 16° North 514 592 39,000  Level FlightAware
07:20PM 34.3390 -95.9600 16° North 515 593 39,000  Level FlightAware
07:21PM 34.4220 -95.9310 16° North 515 593 39,000  Level FlightAware
07:21PM 34.5040 -95.9030 16° North 514 592 39,000  Level FlightAware
07:22PM 34.6030 -95.8680 16° North 514 592 39,000  Level FlightAware
07:22PM 34.6850 -95.8390 16° North 513 590 39,000  Level FlightAware
07:23PM 34.7790 -95.8070 16° North 514 592 39,000  Level FlightAware
07:24PM 34.8550 -95.7670 23° Northeast 517 595 39,000  Level FlightAware
07:24PM 34.9390 -95.6780 41° Northeast 519 597 39,000  Level FlightAware
07:25PM 35.0050 -95.6010 44° Northeast 518 596 39,000  Level FlightAware
07:26PM 35.0760 -95.5200 43° Northeast 518 596 39,000  Level FlightAware
07:27PM 35.1300 -95.4590 43° Northeast 518 596 39,000  Level FlightAware
07:27PM 35.2010 -95.3770 43° Northeast 518 596 39,000  Level FlightAware
07:28PM 35.2910 -95.2670 45° Northeast 520 598 39,000  Level FlightAware
07:28PM 35.3480 -95.2020 43° Northeast 520 598 39,000  Level FlightAware
07:29PM 35.4100 -95.1260 45° Northeast 518 596 39,000  Level FlightAware
07:30PM 35.4830 -95.0400 44° Northeast 516 594 39,000  Level FlightAware
07:31PM 35.5760 -94.9290 44° Northeast 518 596 39,000  Level FlightAware
07:31PM 35.6580 -94.8320 44° Northeast 520 598 39,000  Level FlightAware
07:32PM 35.7380 -94.7560 38° Northeast 522 601 39,000  Level FlightAware
07:33PM 35.8240 -94.6820 35° Northeast 522 601 39,000  Level FlightAware
07:33PM 35.9020 -94.6150 35° Northeast 522 601 39,000  Level FlightAware
07:34PM 35.9750 -94.5530 34° Northeast 524 603 39,000  Level FlightAware
07:35PM 36.0510 -94.4860 35° Northeast 525 604 39,000  Level FlightAware
07:35PM 36.1420 -94.4080 35° Northeast 526 605 39,000  Level FlightAware
07:36PM 36.2130 -94.3470 35° Northeast 526 605 39,000  Level FlightAware
07:37PM 36.2850 -94.2830 36° Northeast 526 605 39,000  Level FlightAware
07:37PM 36.3770 -94.2030 35° Northeast 525 604 39,000  Level FlightAware
07:38PM 36.4630 -94.1280 35° Northeast 522 601 39,000  Level FlightAware
07:39PM 36.5420 -94.0590 35° Northeast 524 603 39,000  Level FlightAware
07:40PM 36.6260 -93.9850 35° Northeast 524 603 39,000  Level FlightAware
07:40PM 36.6890 -93.9290 35° Northeast 525 604 39,000  Level FlightAware
07:41PM 36.7680 -93.8600 35° Northeast 525 604 39,000  Level FlightAware
07:41PM 36.8410 -93.7950 35° Northeast 527 606 39,000  Level FlightAware
07:42PM 36.9290 -93.7170 35° Northeast 526 605 39,000  Level FlightAware
07:43PM 36.9980 -93.6550 36° Northeast 525 604 39,000  Level FlightAware
07:43PM 37.0660 -93.5940 36° Northeast 527 606 39,000  Level FlightAware
07:44PM 37.1570 -93.5130 35° Northeast 527 606 39,000  Level FlightAware
07:45PM 37.2370 -93.4410 36° Northeast 527 606 39,000  Level FlightAware
07:45PM 37.3030 -93.3820 35° Northeast 527 606 39,000  Level FlightAware
07:46PM 37.3940 -93.2990 36° Northeast 527 606 39,000  Level FlightAware
07:47PM 37.4760 -93.2230 36° Northeast 529 609 39,000  Level FlightAware
07:47PM 37.5600 -93.1460 36° Northeast 527 606 39,000  Level FlightAware
07:48PM 37.6390 -93.0720 37° Northeast 529 609 39,000  Level FlightAware
07:49PM 37.7170 -93.0000 36° Northeast 530 610 39,000  Level FlightAware
07:49PM 37.7850 -92.9370 36° Northeast 531 611 39,000  Level FlightAware
07:50PM 37.8770 -92.8510 36° Northeast 531 611 39,000  Level FlightAware
07:51PM 37.9560 -92.7770 36° Northeast 534 615 39,000  Level FlightAware
07:51PM 38.0410 -92.6970 37° Northeast 539 620 39,000  Level FlightAware
07:52PM 38.1150 -92.6270 37° Northeast 540 621 39,000  Level FlightAware
07:53PM 38.1880 -92.5590 36° Northeast 538 619 39,000  Level FlightAware
07:53PM 38.2740 -92.4770 37° Northeast 538 619 39,000  Level FlightAware
07:54PM 38.3390 -92.4170 36° Northeast 538 619 39,000  Level FlightAware
07:55PM 38.4190 -92.3420 36° Northeast 538 619 39,000  Level FlightAware
07:56PM 38.5490 -92.2150 37° Northeast 542 624 39,000  Level FlightAware
07:57PM 38.6350 -92.1350 36° Northeast 542 624 39,000  Level FlightAware
07:57PM 38.6930 -92.0800 37° Northeast 542 624 39,000  Level FlightAware
07:58PM 38.7560 -92.0220 36° Northeast 542 624 39,000  Level FlightAware
07:58PM 38.8780 -91.8970 39° Northeast 546 628 39,000  Level FlightAware
07:59PM 38.9650 -91.8130 37° Northeast 544 626 39,000  Level FlightAware
08:00PM 39.0490 -91.7310 37° Northeast 543 625 39,000  Level FlightAware
08:01PM 39.1330 -91.6490 37° Northeast 544 626 39,000  Level FlightAware
08:01PM 39.1980 -91.5860 37° Northeast 544 626 39,000 -300 Level FlightAware
08:02PM 39.2920 -91.4930 37° Northeast 539 620 38,600 -780 Descending FlightAware
08:03PM 39.3720 -91.4140 37° Northeast 536 617 38,000 -720 Descending FlightAware
08:03PM 39.4760 -91.3120 37° Northeast 528 608 37,500 -480 Descending FlightAware
08:04PM 39.5510 -91.2380 37° Northeast 520 598 37,300 -300 Descending FlightAware
08:05PM 39.6120 -91.1770 38° Northeast 519 597 37,200 -720 Descending FlightAware
08:06PM 39.7170 -91.0720 38° Northeast 514 592 36,200 -1,320 Descending FlightAware
08:06PM 39.8140 -90.9740 38° Northeast 505 581 35,000 -1,440 Descending FlightAware
08:07PM 39.8840 -90.9040 37° Northeast 504 580 34,200 -1,440 Descending FlightAware
08:08PM 39.9620 -90.8250 38° Northeast 509 586 33,100 -900 Descending FlightAware
08:08PM 40.0390 -90.7470 38° Northeast 511 588 33,000 -120 Descending FlightAware
08:09PM 40.1130 -90.6730 37° Northeast 513 590 33,000  Level FlightAware
08:10PM 40.1880 -90.5960 38° Northeast 515 593 33,000  Level FlightAware
08:11PM 40.2730 -90.5100 38° Northeast 515 593 33,000  Level FlightAware
08:11PM 40.3600 -90.4200 38° Northeast 515 593 33,000 -300 Level FlightAware
08:12PM 40.4340 -90.3450 38° Northeast 513 590 32,600 -780 Descending FlightAware
08:13PM 40.5090 -90.2670 38° Northeast 509 586 32,000 -960 Descending FlightAware
08:13PM 40.5980 -90.1760 38° Northeast 504 580 31,200 -1,020 Descending FlightAware
08:14PM 40.6730 -90.0980 38° Northeast 500 575 30,500 -1,080 Descending FlightAware
08:15PM 40.7450 -90.0230 38° Northeast 496 571 29,800 -1,020 Descending FlightAware
08:16PM 40.8230 -89.9420 38° Northeast 491 565 29,100 -600 Descending FlightAware
08:16PM 40.8910 -89.8710 38° Northeast 486 559 29,000 -120 Descending FlightAware
08:17PM 40.9640 -89.7940 39° Northeast 487 560 29,000 -720 Level FlightAware
08:18PM 41.0430 -89.7110 38° Northeast 481 554 28,000 -1,320 Descending FlightAware
08:18PM 41.1220 -89.6280 38° Northeast 464 534 27,100 -1,320 Descending FlightAware
08:19PM 41.1750 -89.5480 49° Northeast 446 513 26,200 -2,220 Descending FlightAware
08:20PM 41.2150 -89.4520 61° Northeast 428 493 24,200 -2,940 Descending FlightAware
08:20PM 41.2540 -89.3550 62° Northeast 413 475 22,100 -2,940 Descending FlightAware
08:21PM 41.2930 -89.2590 62° Northeast 402 463 20,000 -2,940 Descending FlightAware
08:22PM 41.3290 -89.1680 62° Northeast 388 447 17,900 -2,640 Descending FlightAware
08:22PM 41.3630 -89.0850 61° Northeast 382 440 16,400 -1,980 Descending FlightAware
08:23PM 41.3920 -89.0110 62° Northeast 378 435 15,400 -1,740 Descending FlightAware
08:24PM 41.4240 -88.9300 62° Northeast 374 430 14,200 -1,860 Descending FlightAware
08:24PM 41.4540 -88.8560 62° Northeast 370 426 13,100 -1,920 Descending FlightAware
08:25PM 41.4870 -88.7720 62° Northeast 364 419 11,800 -1,680 Descending FlightAware
08:26PM 41.5160 -88.6980 62° Northeast 353 406 10,900 -660 Descending FlightAware
08:26PM 41.5500 -88.6110 62° Northeast 308 354 10,900 -180 Level FlightAware
08:27PM 41.5780 -88.5410 62° Northeast 304 350 10,700 -720 Descending FlightAware
08:28PM 41.6010 -88.4860 61° Northeast 302 348 10,000 -1,320 Descending FlightAware
08:28PM 41.6140 -88.4600 56° Northeast 301 346 9,600 -1,380 Descending FlightAware
08:29PM 41.6390 -88.4170 52° Northeast 301 346 9,000 -1,200 Descending FlightAware
08:29PM 41.6610 -88.3780 53° Northeast 297 342 8,500 -1,140 Descending FlightAware
08:29PM 41.6840 -88.3370 53° Northeast 292 336 8,000 -840 Descending FlightAware
08:30PM 41.6970 -88.3150 52° Northeast 291 335 7,900 -240 Descending FlightAware
08:30PM 41.7120 -88.2900 51° Northeast 292 336 7,900  Level FlightAware
08:30PM 41.7340 -88.2520 52° Northeast 292 336 7,900  Level FlightAware
08:31PM 41.7560 -88.2150 51° Northeast 293 337 7,900 -120 Level FlightAware
08:31PM 41.7780 -88.1770 52° Northeast 292 336 7,800 -360 Descending FlightAware
08:32PM 41.8000 -88.1390 52° Northeast 282 325 7,600 -420 Descending FlightAware
08:32PM 41.8160 -88.1120 52° Northeast 266 306 7,500 -540 Descending FlightAware
08:33PM 41.8350 -88.0770 54° Northeast 252 290 7,200 -720 Descending FlightAware
08:33PM 41.8460 -88.0570 54° Northeast 243 280 7,000 -480 Descending FlightAware
08:33PM 41.8610 -88.0310 52° Northeast 227 261 6,900 -120 Descending FlightAware
08:34PM 41.8780 -87.9970 56° Northeast 209 241 6,900  Level FlightAware
08:34PM 41.8840 -87.9680 74° East 206 237 6,900  Level FlightAware
08:35PM 41.8840 -87.9210 90° East 207 238 6,900  Level FlightAware
08:35PM 41.8840 -87.8630 90° East 207 238 6,900  Level FlightAware
08:36PM 41.8840 -87.8300 90° East 206 237 6,900 -240 Level FlightAware
08:36PM 41.8840 -87.7890 90° East 204 235 6,700 -600 Descending FlightAware
08:37PM 41.8840 -87.7740 90° East 204 235 6,500 -900 Descending FlightAware
08:37PM 41.8840 -87.7390 90° East 202 232 6,100 -960 Descending FlightAware
08:37PM 41.8840 -87.7080 90° East 200 230 5,700 -1,020 Descending FlightAware
08:38PM 41.8840 -87.6730 90° East 200 230 5,200 -1,020 Descending FlightAware
08:38PM 41.8840 -87.6490 90° East 201 231 4,900 -360 Descending FlightAware
08:39PM 41.8840 -87.6090 90° East 202 232 4,900  Level FlightAware
08:39PM 41.8840 -87.5740 90° East 197 227 4,900  Level FlightAware
08:40PM 41.8840 -87.5410 90° East 197 227 4,900  Level FlightAware
08:40PM 41.8840 -87.5070 90° East 199 229 4,900  Level FlightAware
08:41PM 41.8840 -87.4730 90° East 199 229 4,900  Level FlightAware
08:41PM 41.8830 -87.4410 92° East 198 228 4,900  Level FlightAware
08:42PM 41.8830 -87.4090 90° East 198 228 4,900  Level FlightAware
08:42PM 41.8830 -87.3750 90° East 198 228 4,900  Level FlightAware
08:42PM 41.8880 -87.3430 78° East 206 237 4,900  Level FlightAware
08:43PM 41.8960 -87.3330 43° Northeast 212 244 4,900  Level FlightAware
08:43PM 41.9080 -87.3300 11° North 214 246 4,900  Level FlightAware
08:43PM 41.9350 -87.3360 351° North 213 245 4,900  Level FlightAware
08:44PM 41.9460 -87.3420 338° Northwest 210 242 4,900  Level FlightAware
08:44PM 41.9540 -87.3540 312° West 204 235 4,900  Level FlightAware
08:44PM 41.9630 -87.3700 307° West 202 232 4,900  Level FlightAware
08:44PM 41.9670 -87.3840 291° West 195 224 4,900  Level FlightAware
08:44PM 41.9690 -87.4000 280° West 192 221 4,900  Level FlightAware
08:45PM 41.9690 -87.4120 270° West 189 217 4,900  Level FlightAware
08:45PM 41.9690 -87.4460 270° West 179 206 4,900  Level FlightAware
08:46PM 41.9690 -87.4810 270° West 180 207 4,900  Level FlightAware
08:46PM 41.9690 -87.4990 270° West 181 208 4,900  Level FlightAware
08:46PM 41.9690 -87.5060 270° West 181 208 4,900  Level FlightAware
08:47PM 41.9690 -87.5420 270° West 182 209 4,900  Level FlightAware
08:47PM 41.9690 -87.5540 270° West 183 211 4,900 -180 Level FlightAware
08:47PM 41.9690 -87.5910 270° West 183 211 4,800 -600 Descending FlightAware
08:48PM 41.9690 -87.6240 270° West 184 212 4,300 -1,140 Descending FlightAware
08:48PM 41.9690 -87.6330 270° West 182 209 4,100 -1,020 Descending FlightAware
08:48PM 41.9690 -87.6620 270° West 177 204 3,700 -900 Descending FlightAware
08:48PM 41.9690 -87.6710 270° West 178 205 3,600 -900 Descending FlightAware
08:49PM 41.9690 -87.7070 270° West 178 205 3,100 -1,080 Descending FlightAware
08:49PM 41.9690 -87.7230 270° West 176 203 2,800 -1,020 Descending FlightAware
08:49PM 41.9690 -87.7410 270° West 174 200 2,600 -840 Descending FlightAware
08:50PM 41.9690 -87.7780 270° West 169 194 2,100 -900 Descending FlightAware
08:51PM 41.9690 -87.8040 270° West 153 176 1,700 -900 Descending FlightAware
08:51PM 41.9690 -87.8310 270° West 146 168 1,300 -780 Descending FlightAware
08:51PM 41.9690 -87.8410 270° West 147 169 1,200 -780 Descending FlightAware
08:52PM 41.9690 -87.8690 270° West 149 171 800 -780 Descending FlightAware
08:52PM 41.9690 -87.8740 270° West 148 170 700 -180 Descending FlightAware
08:52PM 41.9690 -87.8970 270° West 148 170 700  Level FlightAware